CPA580 VHHH-RJCC
Flight info
| Callsign | CPA580 |
|---|---|
| Flight time | 4h 6m |
| Altitude | 37000 |
| Route | DUMEP1T DUMEP V631 ENVAR M750 MOMPA Y451 HKC Y45 MARCO Y141 SAMON Y14 GOLDO Y19 MRE Y13 MEKAB Y137 NONUT Y11 NAVER YUNEYE |
| Aircraft | B77W/H-SDE1E2E3FGHIJ2J3J4J5M1RWXY/LB1D1 |
Departure
| Time | 2026-05-07 01:50 |
|---|---|
| Airport | Hong Kong International Airport (VHHH) |
Arrival
| Time | 2026-05-07 05:57 |
|---|---|
| Airport | New Chitose Airport (RJCC) |
| Time | Latitude | Longitude | Altitude | Speed | Heading |
|---|---|---|---|---|---|
| 2026-05-07 01:47 | 22.30975 | 113.89997 | 41 ft | 23 kts | 250° |
| 2026-05-07 01:47 | 22.30945 | 113.89905 | 42 ft | 17 kts | 251° |
| 2026-05-07 01:47 | 22.30931 | 113.89826 | 42 ft | 6 kts | 300° |
| 2026-05-07 01:48 | 22.30970 | 113.89798 | 42 ft | 7 kts | 339° |
| 2026-05-07 01:48 | 22.31038 | 113.89773 | 41 ft | 10 kts | 341° |
| 2026-05-07 01:48 | 22.31090 | 113.89795 | 41 ft | 8 kts | 54° |
| 2026-05-07 01:48 | 22.31106 | 113.89833 | 41 ft | 8 kts | 73° |
| 2026-05-07 01:49 | 22.31113 | 113.89856 | 41 ft | 1 kts | 71° |
| 2026-05-07 01:49 | 22.31150 | 113.89970 | 42 ft | 38 kts | 71° |
| 2026-05-07 01:49 | 22.31326 | 113.90520 | 39 ft | 115 kts | 71° |
| 2026-05-07 01:49 | 22.31658 | 113.91552 | 48 ft | 172 kts | 70° |
| 2026-05-07 01:50 | 22.32071 | 113.92793 | 582 ft | 180 kts | 72° |
| 2026-05-07 01:50 | 22.32491 | 113.94090 | 1245 ft | 184 kts | 72° |
| 2026-05-07 01:50 | 22.32913 | 113.95398 | 1965 ft | 192 kts | 73° |
| 2026-05-07 01:50 | 22.33376 | 113.96840 | 2309 ft | 209 kts | 69° |
| 2026-05-07 01:51 | 22.34132 | 113.98230 | 2804 ft | 220 kts | 57° |
| 2026-05-07 01:51 | 22.35042 | 113.99611 | 3351 ft | 230 kts | 56° |
| 2026-05-07 01:51 | 22.35960 | 114.01011 | 4034 ft | 232 kts | 56° |
| 2026-05-07 01:51 | 22.36884 | 114.02448 | 4733 ft | 234 kts | 56° |
| 2026-05-07 01:52 | 22.37811 | 114.03907 | 5392 ft | 236 kts | 56° |
| 2026-05-07 01:52 | 22.38746 | 114.05387 | 6018 ft | 241 kts | 56° |
| 2026-05-07 01:52 | 22.39688 | 114.06901 | 6644 ft | 242 kts | 61° |
| 2026-05-07 01:52 | 22.40156 | 114.08650 | 7007 ft | 249 kts | 96° |
| 2026-05-07 01:53 | 22.39665 | 114.10497 | 7195 ft | 266 kts | 117° |
| 2026-05-07 01:53 | 22.38869 | 114.12383 | 7540 ft | 283 kts | 116° |
| 2026-05-07 01:53 | 22.38049 | 114.14364 | 8126 ft | 294 kts | 116° |
| 2026-05-07 01:53 | 22.37212 | 114.16399 | 8816 ft | 299 kts | 116° |
| 2026-05-07 01:54 | 22.36364 | 114.18477 | 9581 ft | 303 kts | 115° |
| 2026-05-07 01:54 | 22.35525 | 114.20551 | 10262 ft | 308 kts | 115° |
| 2026-05-07 01:54 | 22.34640 | 114.22736 | 10603 ft | 330 kts | 115° |
| 2026-05-07 01:54 | 22.33675 | 114.25092 | 10778 ft | 352 kts | 118° |
| 2026-05-07 01:55 | 22.32202 | 114.27252 | 10903 ft | 369 kts | 142° |
| 2026-05-07 01:55 | 22.29959 | 114.28648 | 11195 ft | 378 kts | 159° |
| 2026-05-07 01:55 | 22.27492 | 114.29769 | 11761 ft | 389 kts | 159° |
| 2026-05-07 01:55 | 22.25006 | 114.30964 | 12599 ft | 393 kts | 158° |
| 2026-05-07 01:56 | 22.22573 | 114.32345 | 13384 ft | 397 kts | 149° |
| 2026-05-07 01:56 | 22.20301 | 114.34085 | 13996 ft | 403 kts | 144° |
| 2026-05-07 01:56 | 22.18074 | 114.35963 | 14562 ft | 407 kts | 144° |
| 2026-05-07 01:56 | 22.15860 | 114.37828 | 15117 ft | 411 kts | 144° |
| 2026-05-07 01:57 | 22.13569 | 114.39704 | 15665 ft | 415 kts | 145° |
| 2026-05-07 01:57 | 22.11230 | 114.41568 | 16192 ft | 420 kts | 146° |
| 2026-05-07 01:57 | 22.08860 | 114.43435 | 16720 ft | 424 kts | 146° |
| 2026-05-07 01:57 | 22.06455 | 114.45325 | 17234 ft | 429 kts | 146° |
| 2026-05-07 01:58 | 22.04034 | 114.47229 | 17755 ft | 433 kts | 146° |
| 2026-05-07 01:58 | 22.01588 | 114.49157 | 18265 ft | 437 kts | 146° |
| 2026-05-07 01:58 | 21.99119 | 114.51101 | 18702 ft | 441 kts | 146° |
| 2026-05-07 01:58 | 21.96653 | 114.53088 | 19148 ft | 444 kts | 142° |
| 2026-05-07 01:59 | 21.94519 | 114.55518 | 19565 ft | 451 kts | 129° |
| 2026-05-07 01:59 | 21.92664 | 114.58255 | 20022 ft | 454 kts | 127° |
| 2026-05-07 01:59 | 21.90846 | 114.61007 | 20460 ft | 457 kts | 127° |
| 2026-05-07 01:59 | 21.88985 | 114.63781 | 20875 ft | 460 kts | 128° |
| 2026-05-07 02:00 | 21.87072 | 114.66568 | 21277 ft | 463 kts | 128° |
| 2026-05-07 02:00 | 21.85126 | 114.69351 | 21707 ft | 466 kts | 129° |
| 2026-05-07 02:00 | 21.83160 | 114.72138 | 22112 ft | 469 kts | 129° |
| 2026-05-07 02:00 | 21.81172 | 114.74948 | 22523 ft | 472 kts | 129° |
| 2026-05-07 02:01 | 21.79182 | 114.77763 | 22901 ft | 475 kts | 129° |
| 2026-05-07 02:01 | 21.77176 | 114.80601 | 23277 ft | 478 kts | 129° |
| 2026-05-07 02:01 | 21.75329 | 114.83580 | 23508 ft | 481 kts | 117° |
| 2026-05-07 02:01 | 21.74306 | 114.87022 | 23672 ft | 489 kts | 98° |
| 2026-05-07 02:02 | 21.74198 | 114.90658 | 23970 ft | 487 kts | 88° |
| 2026-05-07 02:02 | 21.74276 | 114.94262 | 24255 ft | 490 kts | 89° |
| 2026-05-07 02:02 | 21.74324 | 114.97941 | 24548 ft | 492 kts | 89° |
| 2026-05-07 02:02 | 21.74388 | 115.01677 | 24882 ft | 494 kts | 86° |
| 2026-05-07 02:03 | 21.74692 | 115.05312 | 25188 ft | 496 kts | 83° |
| 2026-05-07 02:03 | 21.75100 | 115.09003 | 25480 ft | 498 kts | 82° |
| 2026-05-07 02:03 | 21.75540 | 115.12702 | 25774 ft | 500 kts | 82° |
| 2026-05-07 02:03 | 21.75983 | 115.16434 | 26070 ft | 502 kts | 82° |
| 2026-05-07 02:04 | 21.76414 | 115.20169 | 26359 ft | 505 kts | 83° |
| 2026-05-07 02:04 | 21.76834 | 115.23939 | 26651 ft | 507 kts | 83° |
| 2026-05-07 02:04 | 21.77243 | 115.27720 | 26935 ft | 509 kts | 83° |
| 2026-05-07 02:04 | 21.77645 | 115.31514 | 27207 ft | 511 kts | 83° |
| 2026-05-07 02:05 | 21.78040 | 115.35280 | 27492 ft | 513 kts | 83° |
| 2026-05-07 02:05 | 21.78443 | 115.39139 | 27782 ft | 515 kts | 83° |
| 2026-05-07 02:05 | 21.78839 | 115.42941 | 28052 ft | 517 kts | 83° |
| 2026-05-07 02:05 | 21.79240 | 115.46785 | 28294 ft | 519 kts | 83° |
| 2026-05-07 02:06 | 21.79648 | 115.50700 | 28539 ft | 521 kts | 83° |
| 2026-05-07 02:06 | 21.80048 | 115.54545 | 28768 ft | 523 kts | 83° |
| 2026-05-07 02:06 | 21.80452 | 115.58438 | 28988 ft | 525 kts | 83° |
| 2026-05-07 02:06 | 21.80857 | 115.62343 | 29203 ft | 527 kts | 83° |
| 2026-05-07 02:07 | 21.81264 | 115.66274 | 29481 ft | 529 kts | 83° |
| 2026-05-07 02:07 | 21.82076 | 115.74158 | 30210 ft | 530 kts | 83° |
| 2026-05-07 02:07 | 21.82482 | 115.78103 | 30599 ft | 529 kts | 82° |
| 2026-05-07 02:08 | 21.82885 | 115.82039 | 30998 ft | 528 kts | 82° |
| 2026-05-07 02:08 | 21.83286 | 115.85970 | 31398 ft | 527 kts | 82° |
| 2026-05-07 02:08 | 21.83680 | 115.89836 | 31783 ft | 526 kts | 82° |
| 2026-05-07 02:08 | 21.84078 | 115.93748 | 32175 ft | 526 kts | 82° |
| 2026-05-07 02:09 | 21.84476 | 115.97668 | 32580 ft | 525 kts | 82° |
| 2026-05-07 02:09 | 21.84871 | 116.01567 | 32991 ft | 523 kts | 82° |
| 2026-05-07 02:09 | 21.85264 | 116.05459 | 33387 ft | 523 kts | 81° |
| 2026-05-07 02:09 | 21.85656 | 116.09356 | 33761 ft | 522 kts | 81° |
| 2026-05-07 02:10 | 21.86047 | 116.13241 | 34092 ft | 523 kts | 81° |
| 2026-05-07 02:10 | 21.86438 | 116.17139 | 34356 ft | 523 kts | 82° |
| 2026-05-07 02:10 | 21.86828 | 116.21032 | 34669 ft | 523 kts | 82° |
| 2026-05-07 02:10 | 21.87216 | 116.24921 | 34999 ft | 522 kts | 82° |
| 2026-05-07 02:11 | 21.87602 | 116.28804 | 35333 ft | 521 kts | 82° |
| 2026-05-07 02:11 | 21.87987 | 116.32681 | 35663 ft | 520 kts | 82° |
| 2026-05-07 02:11 | 21.88370 | 116.36552 | 35961 ft | 520 kts | 82° |
| 2026-05-07 02:11 | 21.88753 | 116.40426 | 36233 ft | 520 kts | 82° |
| 2026-05-07 02:12 | 21.89135 | 116.44299 | 36519 ft | 519 kts | 82° |
| 2026-05-07 02:12 | 21.89515 | 116.48159 | 36807 ft | 519 kts | 82° |
| 2026-05-07 02:12 | 21.89891 | 116.51985 | 36932 ft | 522 kts | 82° |
| 2026-05-07 02:12 | 21.90273 | 116.55883 | 36986 ft | 524 kts | 82° |
| 2026-05-07 02:13 | 21.91032 | 116.63674 | 36965 ft | 520 kts | 82° |
| 2026-05-07 02:13 | 21.91780 | 116.71387 | 36984 ft | 516 kts | 82° |
| 2026-05-07 02:14 | 21.92522 | 116.79069 | 36982 ft | 515 kts | 82° |
| 2026-05-07 02:14 | 21.93261 | 116.86753 | 36989 ft | 515 kts | 82° |
| 2026-05-07 02:15 | 21.93995 | 116.94426 | 36989 ft | 516 kts | 82° |
| 2026-05-07 02:15 | 21.94726 | 117.02104 | 36991 ft | 518 kts | 82° |
| 2026-05-07 02:16 | 21.95459 | 117.09846 | 36988 ft | 519 kts | 82° |
| 2026-05-07 02:16 | 21.96190 | 117.17615 | 36986 ft | 521 kts | 82° |
| 2026-05-07 02:17 | 21.96918 | 117.25383 | 36981 ft | 522 kts | 82° |
| 2026-05-07 02:17 | 21.97640 | 117.33128 | 36998 ft | 522 kts | 82° |
| 2026-05-07 02:18 | 21.98362 | 117.40910 | 36993 ft | 522 kts | 82° |
| 2026-05-07 02:18 | 21.99559 | 117.48590 | 36970 ft | 517 kts | 70° |
| 2026-05-07 02:19 | 22.02286 | 117.55723 | 36973 ft | 511 kts | 57° |
| 2026-05-07 02:19 | 22.06011 | 117.62240 | 36994 ft | 509 kts | 54° |
| 2026-05-07 02:20 | 22.09760 | 117.68683 | 36983 ft | 510 kts | 55° |
| 2026-05-07 02:20 | 22.13497 | 117.75244 | 36981 ft | 510 kts | 55° |
| 2026-05-07 02:21 | 22.17158 | 117.81741 | 36985 ft | 511 kts | 55° |
| 2026-05-07 02:21 | 22.20847 | 117.88295 | 36988 ft | 511 kts | 55° |
| 2026-05-07 02:22 | 22.24546 | 117.94866 | 36987 ft | 511 kts | 55° |
| 2026-05-07 02:22 | 22.28221 | 118.01393 | 36989 ft | 511 kts | 55° |
| 2026-05-07 02:23 | 22.32011 | 118.07880 | 36985 ft | 510 kts | 54° |
| 2026-05-07 02:23 | 22.35824 | 118.14348 | 36986 ft | 510 kts | 54° |
| 2026-05-07 02:24 | 22.39616 | 118.20835 | 36991 ft | 511 kts | 54° |
| 2026-05-07 02:24 | 22.43340 | 118.27332 | 36984 ft | 511 kts | 55° |
| 2026-05-07 02:25 | 22.47047 | 118.33917 | 36990 ft | 511 kts | 55° |
| 2026-05-07 02:25 | 22.50753 | 118.40487 | 36989 ft | 511 kts | 55° |
| 2026-05-07 02:26 | 22.54442 | 118.47018 | 36987 ft | 511 kts | 55° |
| 2026-05-07 02:26 | 22.58152 | 118.53583 | 36988 ft | 511 kts | 55° |
| 2026-05-07 02:27 | 22.61888 | 118.60130 | 36987 ft | 511 kts | 55° |
| 2026-05-07 02:27 | 22.65631 | 118.66680 | 36985 ft | 511 kts | 55° |
| 2026-05-07 02:28 | 22.69368 | 118.73237 | 36987 ft | 511 kts | 55° |
| 2026-05-07 02:28 | 22.73097 | 118.79796 | 36986 ft | 511 kts | 55° |
| 2026-05-07 02:29 | 22.76800 | 118.86320 | 36986 ft | 511 kts | 55° |
| 2026-05-07 02:29 | 22.80522 | 118.92885 | 36994 ft | 511 kts | 55° |
| 2026-05-07 02:30 | 22.84249 | 118.99466 | 36990 ft | 512 kts | 55° |
| 2026-05-07 02:30 | 22.87966 | 119.06038 | 36990 ft | 512 kts | 55° |
| 2026-05-07 02:31 | 22.91057 | 119.11509 | 36986 ft | 512 kts | 55° |
| 2026-05-07 02:31 | 22.94778 | 119.18103 | 36987 ft | 512 kts | 55° |
| 2026-05-07 02:32 | 22.99095 | 119.25764 | 36985 ft | 512 kts | 55° |
| 2026-05-07 02:32 | 23.02805 | 119.32358 | 36988 ft | 512 kts | 55° |
| 2026-05-07 02:33 | 23.05915 | 119.37892 | 36988 ft | 512 kts | 55° |
| 2026-05-07 02:33 | 23.09602 | 119.44460 | 36984 ft | 512 kts | 55° |
| 2026-05-07 02:34 | 23.13314 | 119.51082 | 36979 ft | 512 kts | 55° |
| 2026-05-07 02:34 | 23.17012 | 119.57688 | 36982 ft | 512 kts | 55° |
| 2026-05-07 02:35 | 23.20713 | 119.64308 | 36980 ft | 512 kts | 56° |
| 2026-05-07 02:35 | 23.24382 | 119.70888 | 36984 ft | 512 kts | 56° |
| 2026-05-07 02:36 | 23.28074 | 119.77517 | 36977 ft | 512 kts | 56° |
| 2026-05-07 02:36 | 23.31755 | 119.84134 | 36979 ft | 512 kts | 56° |
| 2026-05-07 02:37 | 23.35534 | 119.90696 | 36982 ft | 509 kts | 50° |
| 2026-05-07 02:37 | 23.40114 | 119.96489 | 36975 ft | 502 kts | 39° |
| 2026-05-07 02:38 | 23.45216 | 120.01678 | 36990 ft | 502 kts | 39° |
| 2026-05-07 02:38 | 23.50337 | 120.06873 | 36985 ft | 503 kts | 39° |
| 2026-05-07 02:39 | 23.55426 | 120.12102 | 36980 ft | 503 kts | 39° |
| 2026-05-07 02:39 | 23.60479 | 120.17328 | 36985 ft | 503 kts | 39° |
| 2026-05-07 02:40 | 23.65553 | 120.22584 | 36996 ft | 503 kts | 39° |
| 2026-05-07 02:40 | 23.70637 | 120.27852 | 36989 ft | 503 kts | 39° |
| 2026-05-07 02:41 | 23.75710 | 120.33114 | 36994 ft | 503 kts | 39° |
| 2026-05-07 02:41 | 23.80779 | 120.38377 | 36990 ft | 503 kts | 39° |
| 2026-05-07 02:42 | 23.85820 | 120.43619 | 36999 ft | 503 kts | 39° |
| 2026-05-07 02:42 | 23.90888 | 120.48893 | 37002 ft | 503 kts | 39° |
| 2026-05-07 02:43 | 23.95941 | 120.54198 | 37006 ft | 503 kts | 40° |
| 2026-05-07 02:43 | 24.00973 | 120.59515 | 37009 ft | 503 kts | 40° |
| 2026-05-07 02:44 | 24.06003 | 120.64834 | 37017 ft | 502 kts | 40° |
| 2026-05-07 02:44 | 24.10997 | 120.70115 | 37026 ft | 502 kts | 40° |
| 2026-05-07 02:45 | 24.16017 | 120.75428 | 37035 ft | 502 kts | 40° |
| 2026-05-07 02:45 | 24.21034 | 120.80744 | 37027 ft | 501 kts | 40° |
| 2026-05-07 02:46 | 24.26045 | 120.86061 | 37030 ft | 501 kts | 40° |
| 2026-05-07 02:46 | 24.31056 | 120.91383 | 37016 ft | 501 kts | 40° |
| 2026-05-07 02:47 | 24.36049 | 120.96695 | 37037 ft | 500 kts | 40° |
| 2026-05-07 02:47 | 24.41005 | 121.01993 | 37030 ft | 500 kts | 41° |
| 2026-05-07 02:48 | 24.45561 | 121.07893 | 37032 ft | 504 kts | 48° |
| 2026-05-07 02:48 | 24.49855 | 121.13909 | 37035 ft | 504 kts | 48° |
| 2026-05-07 02:49 | 24.54191 | 121.19964 | 37040 ft | 504 kts | 47° |
| 2026-05-07 02:49 | 24.58551 | 121.25998 | 37043 ft | 504 kts | 47° |
| 2026-05-07 02:50 | 24.62918 | 121.32023 | 37029 ft | 504 kts | 47° |
| 2026-05-07 02:50 | 24.67259 | 121.38023 | 37043 ft | 504 kts | 47° |
| 2026-05-07 02:51 | 24.71642 | 121.44095 | 37021 ft | 504 kts | 47° |
| 2026-05-07 02:51 | 24.75964 | 121.50093 | 36997 ft | 503 kts | 47° |
| 2026-05-07 02:52 | 24.80299 | 121.56116 | 36979 ft | 501 kts | 47° |
| 2026-05-07 02:52 | 24.84643 | 121.62154 | 36982 ft | 503 kts | 47° |
| 2026-05-07 02:53 | 24.88988 | 121.68203 | 36971 ft | 504 kts | 47° |
| 2026-05-07 02:53 | 24.93454 | 121.74154 | 36980 ft | 503 kts | 45° |
| 2026-05-07 02:54 | 24.98091 | 121.79954 | 36965 ft | 505 kts | 44° |
| 2026-05-07 02:54 | 25.02714 | 121.85791 | 36974 ft | 506 kts | 45° |
| 2026-05-07 02:55 | 25.07309 | 121.91673 | 36966 ft | 506 kts | 45° |
| 2026-05-07 02:55 | 25.11899 | 121.97559 | 36981 ft | 506 kts | 45° |
| 2026-05-07 02:56 | 25.16449 | 122.03412 | 36988 ft | 506 kts | 45° |
| 2026-05-07 02:56 | 25.21021 | 122.09337 | 36976 ft | 506 kts | 45° |
| 2026-05-07 02:57 | 25.25584 | 122.15260 | 36979 ft | 506 kts | 45° |
| 2026-05-07 02:57 | 25.30147 | 122.21186 | 36978 ft | 506 kts | 45° |
| 2026-05-07 02:58 | 25.34712 | 122.27121 | 36985 ft | 506 kts | 45° |
| 2026-05-07 02:58 | 25.39255 | 122.33034 | 36978 ft | 507 kts | 45° |
| 2026-05-07 02:59 | 25.43826 | 122.38992 | 36981 ft | 508 kts | 45° |
| 2026-05-07 02:59 | 25.48392 | 122.44951 | 36977 ft | 508 kts | 45° |
| 2026-05-07 03:00 | 25.52974 | 122.50928 | 36977 ft | 508 kts | 45° |
| 2026-05-07 03:00 | 25.57572 | 122.56893 | 36982 ft | 509 kts | 45° |
| 2026-05-07 03:01 | 25.62181 | 122.62874 | 36985 ft | 510 kts | 45° |
| 2026-05-07 03:01 | 25.66758 | 122.68830 | 36978 ft | 510 kts | 45° |
| 2026-05-07 03:02 | 25.71366 | 122.74837 | 36981 ft | 511 kts | 45° |
| 2026-05-07 03:02 | 25.75967 | 122.80843 | 36987 ft | 511 kts | 45° |
| 2026-05-07 03:03 | 25.80573 | 122.86863 | 36981 ft | 511 kts | 45° |
| 2026-05-07 03:03 | 25.85181 | 122.92895 | 36986 ft | 512 kts | 45° |
| 2026-05-07 03:04 | 25.89758 | 122.98892 | 36977 ft | 512 kts | 45° |
| 2026-05-07 03:04 | 25.94357 | 123.04929 | 36987 ft | 512 kts | 45° |
| 2026-05-07 03:05 | 25.98969 | 123.10995 | 36979 ft | 513 kts | 45° |
| 2026-05-07 03:05 | 26.03567 | 123.17054 | 36988 ft | 513 kts | 45° |
| 2026-05-07 03:06 | 26.08174 | 123.23132 | 36984 ft | 513 kts | 45° |
| 2026-05-07 03:06 | 26.12745 | 123.29171 | 36993 ft | 513 kts | 45° |
| 2026-05-07 03:07 | 26.17341 | 123.35251 | 36982 ft | 513 kts | 45° |
| 2026-05-07 03:07 | 26.21933 | 123.41333 | 36983 ft | 513 kts | 45° |
| 2026-05-07 03:08 | 26.26526 | 123.47426 | 36987 ft | 513 kts | 45° |
| 2026-05-07 03:08 | 26.31128 | 123.53537 | 36983 ft | 513 kts | 45° |
| 2026-05-07 03:09 | 26.35720 | 123.59644 | 36989 ft | 514 kts | 45° |
| 2026-05-07 03:09 | 26.40284 | 123.65724 | 36987 ft | 514 kts | 45° |
| 2026-05-07 03:10 | 26.44882 | 123.71856 | 36985 ft | 514 kts | 45° |
| 2026-05-07 03:10 | 26.49484 | 123.78002 | 36985 ft | 514 kts | 45° |
| 2026-05-07 03:11 | 26.54041 | 123.84096 | 36994 ft | 515 kts | 45° |
| 2026-05-07 03:11 | 26.58635 | 123.90249 | 36990 ft | 515 kts | 45° |
| 2026-05-07 03:12 | 26.63222 | 123.96402 | 36988 ft | 515 kts | 46° |
| 2026-05-07 03:12 | 26.67818 | 124.02569 | 36990 ft | 515 kts | 45° |
| 2026-05-07 03:13 | 26.72417 | 124.08728 | 36988 ft | 515 kts | 45° |
| 2026-05-07 03:13 | 26.76974 | 124.14839 | 36992 ft | 515 kts | 46° |
| 2026-05-07 03:14 | 26.81558 | 124.20998 | 36995 ft | 515 kts | 46° |
| 2026-05-07 03:15 | 26.88428 | 124.30248 | 37010 ft | 515 kts | 46° |
| 2026-05-07 03:15 | 26.93009 | 124.36426 | 36999 ft | 515 kts | 46° |
| 2026-05-07 03:16 | 26.97596 | 124.42620 | 36998 ft | 515 kts | 46° |
| 2026-05-07 03:16 | 27.02157 | 124.48771 | 37000 ft | 515 kts | 46° |
| 2026-05-07 03:17 | 27.05977 | 124.53916 | 37018 ft | 516 kts | 46° |
| 2026-05-07 03:17 | 27.10566 | 124.60108 | 37000 ft | 516 kts | 46° |
| 2026-05-07 03:18 | 27.15906 | 124.67330 | 36998 ft | 517 kts | 46° |
| 2026-05-07 03:18 | 27.19751 | 124.72539 | 36997 ft | 517 kts | 46° |
| 2026-05-07 03:19 | 27.24317 | 124.78731 | 37031 ft | 517 kts | 46° |
| 2026-05-07 03:19 | 27.28911 | 124.84970 | 37006 ft | 518 kts | 46° |
| 2026-05-07 03:20 | 27.33502 | 124.91215 | 37009 ft | 518 kts | 46° |
| 2026-05-07 03:20 | 27.38102 | 124.97482 | 37004 ft | 518 kts | 46° |
| 2026-05-07 03:21 | 27.42665 | 125.03681 | 37018 ft | 518 kts | 46° |
| 2026-05-07 03:21 | 27.47287 | 125.09908 | 37009 ft | 518 kts | 46° |
| 2026-05-07 03:22 | 27.51914 | 125.16145 | 37004 ft | 518 kts | 46° |
| 2026-05-07 03:22 | 27.56524 | 125.22377 | 37005 ft | 518 kts | 46° |
| 2026-05-07 03:23 | 27.61147 | 125.28642 | 37019 ft | 518 kts | 46° |
| 2026-05-07 03:23 | 27.65759 | 125.34902 | 37007 ft | 519 kts | 46° |
| 2026-05-07 03:24 | 27.70339 | 125.41128 | 37006 ft | 519 kts | 46° |
| 2026-05-07 03:24 | 27.74957 | 125.47413 | 37006 ft | 519 kts | 46° |
| 2026-05-07 03:25 | 27.79556 | 125.53681 | 37015 ft | 519 kts | 46° |
| 2026-05-07 03:25 | 27.84171 | 125.59982 | 37004 ft | 519 kts | 46° |
| 2026-05-07 03:26 | 27.88774 | 125.66275 | 37003 ft | 519 kts | 46° |
| 2026-05-07 03:26 | 27.93381 | 125.72582 | 37003 ft | 520 kts | 46° |
| 2026-05-07 03:27 | 27.97956 | 125.78855 | 37009 ft | 520 kts | 46° |
| 2026-05-07 03:27 | 28.02559 | 125.85175 | 36999 ft | 521 kts | 46° |
| 2026-05-07 03:28 | 28.07166 | 125.91511 | 36997 ft | 521 kts | 46° |
| 2026-05-07 03:28 | 28.11782 | 125.97869 | 37023 ft | 521 kts | 46° |
| 2026-05-07 03:29 | 28.16365 | 126.04189 | 37008 ft | 522 kts | 46° |
| 2026-05-07 03:29 | 28.20966 | 126.10545 | 37008 ft | 522 kts | 46° |
| 2026-05-07 03:30 | 28.25562 | 126.16904 | 36990 ft | 522 kts | 46° |
| 2026-05-07 03:30 | 28.30168 | 126.23285 | 37002 ft | 522 kts | 46° |
| 2026-05-07 03:31 | 28.34747 | 126.29639 | 37001 ft | 522 kts | 46° |
| 2026-05-07 03:31 | 28.39374 | 126.36069 | 36998 ft | 522 kts | 46° |
| 2026-05-07 03:32 | 28.43940 | 126.42425 | 37001 ft | 522 kts | 46° |
| 2026-05-07 03:32 | 28.48536 | 126.48831 | 37020 ft | 522 kts | 47° |
| 2026-05-07 03:33 | 28.53105 | 126.55209 | 37016 ft | 522 kts | 47° |
| 2026-05-07 03:33 | 28.57689 | 126.61619 | 36996 ft | 522 kts | 47° |
| 2026-05-07 03:34 | 28.62279 | 126.68047 | 37018 ft | 522 kts | 47° |
| 2026-05-07 03:34 | 28.66869 | 126.74483 | 37006 ft | 523 kts | 47° |
| 2026-05-07 03:35 | 28.71430 | 126.80890 | 37001 ft | 523 kts | 47° |
| 2026-05-07 03:35 | 28.76013 | 126.87337 | 37002 ft | 523 kts | 47° |
| 2026-05-07 03:36 | 28.80590 | 126.93786 | 37010 ft | 523 kts | 47° |
| 2026-05-07 03:36 | 28.85173 | 127.00253 | 37000 ft | 524 kts | 47° |
| 2026-05-07 03:37 | 28.89747 | 127.06718 | 36999 ft | 523 kts | 47° |
| 2026-05-07 03:37 | 28.94318 | 127.13189 | 37024 ft | 523 kts | 47° |
| 2026-05-07 03:38 | 28.98883 | 127.19661 | 37004 ft | 524 kts | 47° |
| 2026-05-07 03:38 | 29.03430 | 127.26117 | 36996 ft | 523 kts | 47° |
| 2026-05-07 03:39 | 29.07986 | 127.32597 | 36995 ft | 523 kts | 47° |
| 2026-05-07 03:39 | 29.12547 | 127.39094 | 36993 ft | 523 kts | 47° |
| 2026-05-07 03:40 | 29.17099 | 127.45590 | 36994 ft | 523 kts | 47° |
| 2026-05-07 03:40 | 29.21625 | 127.52057 | 37003 ft | 523 kts | 47° |
| 2026-05-07 03:41 | 29.26172 | 127.58564 | 37009 ft | 523 kts | 47° |
| 2026-05-07 03:41 | 29.30717 | 127.65079 | 36995 ft | 523 kts | 47° |
| 2026-05-07 03:42 | 29.35254 | 127.71594 | 36990 ft | 523 kts | 47° |
| 2026-05-07 03:42 | 29.39788 | 127.78114 | 36992 ft | 523 kts | 47° |
| 2026-05-07 03:43 | 29.44300 | 127.84613 | 37003 ft | 523 kts | 47° |
| 2026-05-07 03:43 | 29.48842 | 127.91168 | 36994 ft | 523 kts | 47° |
| 2026-05-07 03:44 | 29.53374 | 127.97715 | 36987 ft | 523 kts | 47° |
| 2026-05-07 03:44 | 29.57902 | 128.04256 | 37007 ft | 523 kts | 48° |
| 2026-05-07 03:45 | 29.62435 | 128.10813 | 36997 ft | 523 kts | 48° |
| 2026-05-07 03:45 | 29.66928 | 128.17324 | 36994 ft | 523 kts | 48° |
| 2026-05-07 03:46 | 29.71451 | 128.23890 | 36993 ft | 522 kts | 48° |
| 2026-05-07 03:46 | 29.75961 | 128.30449 | 36993 ft | 522 kts | 48° |
| 2026-05-07 03:47 | 29.80467 | 128.37013 | 36991 ft | 522 kts | 48° |
| 2026-05-07 03:47 | 29.84969 | 128.43582 | 36991 ft | 521 kts | 48° |
| 2026-05-07 03:48 | 29.89432 | 128.50103 | 36999 ft | 522 kts | 48° |
| 2026-05-07 03:48 | 29.93953 | 128.56720 | 36991 ft | 522 kts | 48° |
| 2026-05-07 03:49 | 29.98417 | 128.63265 | 36991 ft | 522 kts | 48° |
| 2026-05-07 03:49 | 30.02916 | 128.69872 | 36989 ft | 522 kts | 48° |
| 2026-05-07 03:50 | 30.07403 | 128.76472 | 36988 ft | 522 kts | 48° |
| 2026-05-07 03:50 | 30.11888 | 128.83079 | 36994 ft | 522 kts | 49° |
| 2026-05-07 03:51 | 30.16365 | 128.89687 | 37001 ft | 522 kts | 49° |
| 2026-05-07 03:51 | 30.20818 | 128.96271 | 36987 ft | 522 kts | 49° |
| 2026-05-07 03:52 | 30.25297 | 129.02902 | 36986 ft | 522 kts | 49° |
| 2026-05-07 03:52 | 30.29756 | 129.09510 | 36989 ft | 521 kts | 49° |
| 2026-05-07 03:53 | 30.34217 | 129.16135 | 36995 ft | 521 kts | 49° |
| 2026-05-07 03:53 | 30.38666 | 129.22753 | 36987 ft | 521 kts | 49° |
| 2026-05-07 03:54 | 30.43112 | 129.29380 | 36989 ft | 520 kts | 49° |
| 2026-05-07 03:54 | 30.47522 | 129.35961 | 36992 ft | 520 kts | 49° |
| 2026-05-07 03:55 | 30.51957 | 129.42594 | 36987 ft | 519 kts | 49° |
| 2026-05-07 03:55 | 30.56375 | 129.49210 | 36989 ft | 519 kts | 49° |
| 2026-05-07 03:56 | 30.60795 | 129.55841 | 37002 ft | 519 kts | 50° |
| 2026-05-07 03:56 | 30.65219 | 129.62489 | 36985 ft | 520 kts | 50° |
| 2026-05-07 03:57 | 30.69640 | 129.69145 | 36986 ft | 520 kts | 50° |
| 2026-05-07 03:57 | 30.74059 | 129.75808 | 36999 ft | 520 kts | 50° |
| 2026-05-07 03:58 | 30.78482 | 129.82489 | 36991 ft | 521 kts | 50° |
| 2026-05-07 03:58 | 30.83017 | 129.89044 | 36969 ft | 518 kts | 43° |
| 2026-05-07 03:59 | 30.88319 | 129.94631 | 37009 ft | 513 kts | 33° |
| 2026-05-07 03:59 | 30.94214 | 129.99276 | 36988 ft | 510 kts | 29° |
| 2026-05-07 04:00 | 31.00128 | 130.03771 | 36985 ft | 511 kts | 30° |
| 2026-05-07 04:00 | 31.06060 | 130.08336 | 37009 ft | 511 kts | 30° |
| 2026-05-07 04:01 | 31.11975 | 130.12940 | 36993 ft | 511 kts | 30° |
| 2026-05-07 04:01 | 31.17902 | 130.17570 | 36986 ft | 511 kts | 30° |
| 2026-05-07 04:02 | 31.23810 | 130.22190 | 37002 ft | 511 kts | 30° |
| 2026-05-07 04:02 | 31.29731 | 130.26834 | 36993 ft | 512 kts | 31° |
| 2026-05-07 04:03 | 31.35596 | 130.31457 | 36994 ft | 511 kts | 31° |
| 2026-05-07 04:03 | 31.41518 | 130.36105 | 36996 ft | 511 kts | 31° |
| 2026-05-07 04:04 | 31.46436 | 130.39965 | 36985 ft | 511 kts | 31° |
| 2026-05-07 04:04 | 31.53315 | 130.45378 | 36993 ft | 510 kts | 31° |
| 2026-05-07 04:05 | 31.58247 | 130.49264 | 36987 ft | 511 kts | 31° |
| 2026-05-07 04:05 | 31.64116 | 130.53892 | 36980 ft | 510 kts | 31° |
| 2026-05-07 04:06 | 31.70006 | 130.58548 | 36995 ft | 509 kts | 31° |
| 2026-05-07 04:06 | 31.75983 | 130.62992 | 37009 ft | 508 kts | 28° |
| 2026-05-07 04:07 | 31.82021 | 130.67296 | 36995 ft | 508 kts | 28° |
| 2026-05-07 04:07 | 31.88069 | 130.71650 | 37007 ft | 509 kts | 28° |
| 2026-05-07 04:08 | 31.94113 | 130.76052 | 37000 ft | 510 kts | 28° |
| 2026-05-07 04:08 | 32.00139 | 130.80452 | 36992 ft | 510 kts | 28° |
| 2026-05-07 04:09 | 32.06131 | 130.84829 | 36998 ft | 510 kts | 28° |
| 2026-05-07 04:09 | 32.12171 | 130.89247 | 36986 ft | 510 kts | 29° |
| 2026-05-07 04:10 | 32.18202 | 130.93635 | 36994 ft | 509 kts | 28° |
| 2026-05-07 04:10 | 32.24274 | 130.98026 | 36994 ft | 510 kts | 28° |
| 2026-05-07 04:11 | 32.30314 | 131.02399 | 36987 ft | 510 kts | 28° |
| 2026-05-07 04:11 | 32.36370 | 131.06794 | 37000 ft | 510 kts | 28° |
| 2026-05-07 04:12 | 32.42423 | 131.11200 | 36984 ft | 511 kts | 28° |
| 2026-05-07 04:12 | 32.48447 | 131.15669 | 36986 ft | 510 kts | 29° |
| 2026-05-07 04:13 | 32.54470 | 131.20148 | 36987 ft | 510 kts | 29° |
| 2026-05-07 04:13 | 32.60453 | 131.24593 | 36980 ft | 510 kts | 29° |
| 2026-05-07 04:14 | 32.66454 | 131.29086 | 36962 ft | 510 kts | 29° |
| 2026-05-07 04:14 | 32.72448 | 131.33589 | 36991 ft | 510 kts | 29° |
| 2026-05-07 04:15 | 32.78451 | 131.38088 | 36979 ft | 510 kts | 29° |
| 2026-05-07 04:15 | 32.84477 | 131.42597 | 36983 ft | 511 kts | 29° |
| 2026-05-07 04:16 | 32.90490 | 131.47023 | 36975 ft | 512 kts | 28° |
| 2026-05-07 04:16 | 32.96552 | 131.51481 | 36975 ft | 512 kts | 28° |
| 2026-05-07 04:17 | 33.02609 | 131.55947 | 36987 ft | 512 kts | 28° |
| 2026-05-07 04:17 | 33.08687 | 131.60437 | 36980 ft | 512 kts | 28° |
| 2026-05-07 04:18 | 33.14751 | 131.64927 | 36983 ft | 513 kts | 29° |
| 2026-05-07 04:18 | 33.20785 | 131.69387 | 36989 ft | 512 kts | 27° |
| 2026-05-07 04:19 | 33.27165 | 131.73101 | 36994 ft | 508 kts | 19° |
| 2026-05-07 04:19 | 33.33672 | 131.76365 | 36998 ft | 508 kts | 19° |
| 2026-05-07 04:20 | 33.40168 | 131.79645 | 36988 ft | 509 kts | 19° |
| 2026-05-07 04:20 | 33.46672 | 131.82976 | 37017 ft | 509 kts | 20° |
| 2026-05-07 04:21 | 33.56447 | 131.88022 | 36998 ft | 510 kts | 20° |
| 2026-05-07 04:21 | 33.62979 | 131.91396 | 37008 ft | 511 kts | 20° |
| 2026-05-07 04:22 | 33.69510 | 131.94772 | 36996 ft | 511 kts | 20° |
| 2026-05-07 04:22 | 33.76049 | 131.98157 | 37000 ft | 511 kts | 20° |
| 2026-05-07 04:23 | 33.82548 | 132.01532 | 36997 ft | 511 kts | 19° |
| 2026-05-07 04:23 | 33.89083 | 132.04925 | 37005 ft | 512 kts | 20° |
| 2026-05-07 04:24 | 33.95637 | 132.08332 | 37014 ft | 512 kts | 19° |
| 2026-05-07 04:24 | 34.02193 | 132.11736 | 37002 ft | 513 kts | 19° |
| 2026-05-07 04:25 | 34.08516 | 132.15780 | 37006 ft | 518 kts | 30° |
| 2026-05-07 04:25 | 34.14182 | 132.21127 | 36981 ft | 522 kts | 39° |
| 2026-05-07 04:26 | 34.19601 | 132.26990 | 36990 ft | 522 kts | 39° |
| 2026-05-07 04:26 | 34.25052 | 132.32813 | 37006 ft | 522 kts | 39° |
| 2026-05-07 04:27 | 34.30537 | 132.38599 | 36993 ft | 523 kts | 39° |
| 2026-05-07 04:27 | 34.36002 | 132.44388 | 36985 ft | 523 kts | 39° |
| 2026-05-07 04:28 | 34.41471 | 132.50194 | 36997 ft | 523 kts | 39° |
| 2026-05-07 04:28 | 34.46961 | 132.56023 | 36986 ft | 524 kts | 39° |
| 2026-05-07 04:29 | 34.52440 | 132.61845 | 36980 ft | 524 kts | 39° |
| 2026-05-07 04:29 | 34.57883 | 132.67641 | 36979 ft | 523 kts | 39° |
| 2026-05-07 04:30 | 34.63343 | 132.73466 | 36983 ft | 522 kts | 39° |
| 2026-05-07 04:30 | 34.68798 | 132.79297 | 36977 ft | 523 kts | 39° |
| 2026-05-07 04:31 | 34.74262 | 132.85147 | 36978 ft | 522 kts | 39° |
| 2026-05-07 04:31 | 34.79689 | 132.90970 | 36980 ft | 522 kts | 39° |
| 2026-05-07 04:32 | 34.85139 | 132.96821 | 36975 ft | 522 kts | 39° |
| 2026-05-07 04:32 | 34.90584 | 133.02685 | 36970 ft | 522 kts | 39° |
| 2026-05-07 04:33 | 34.96031 | 133.08575 | 36960 ft | 523 kts | 39° |
| 2026-05-07 04:33 | 35.01468 | 133.14467 | 36976 ft | 522 kts | 39° |
| 2026-05-07 04:34 | 35.06912 | 133.20368 | 36974 ft | 523 kts | 39° |
| 2026-05-07 04:34 | 35.12324 | 133.26239 | 36964 ft | 524 kts | 39° |
| 2026-05-07 04:35 | 35.17772 | 133.32162 | 36958 ft | 525 kts | 39° |
| 2026-05-07 04:35 | 35.23234 | 133.38115 | 36955 ft | 525 kts | 39° |
| 2026-05-07 04:36 | 35.28689 | 133.44071 | 36950 ft | 526 kts | 39° |
| 2026-05-07 04:36 | 35.34158 | 133.50053 | 36957 ft | 527 kts | 40° |
| 2026-05-07 04:37 | 35.39624 | 133.56049 | 36986 ft | 528 kts | 40° |
| 2026-05-07 04:37 | 35.45093 | 133.62055 | 36956 ft | 528 kts | 40° |
| 2026-05-07 04:38 | 35.50555 | 133.68058 | 36964 ft | 527 kts | 40° |
| 2026-05-07 04:38 | 35.56023 | 133.74082 | 36956 ft | 527 kts | 40° |
| 2026-05-07 04:39 | 35.61487 | 133.80116 | 36957 ft | 527 kts | 40° |
| 2026-05-07 04:39 | 35.66901 | 133.86106 | 36949 ft | 527 kts | 40° |
| 2026-05-07 04:40 | 35.72356 | 133.92153 | 36955 ft | 528 kts | 40° |
| 2026-05-07 04:40 | 35.77811 | 133.98209 | 36958 ft | 528 kts | 40° |
| 2026-05-07 04:41 | 35.83264 | 134.04277 | 36957 ft | 529 kts | 40° |
| 2026-05-07 04:41 | 35.88741 | 134.10382 | 36958 ft | 530 kts | 40° |
| 2026-05-07 04:42 | 35.94220 | 134.16502 | 36954 ft | 531 kts | 40° |
| 2026-05-07 04:42 | 35.99672 | 134.22602 | 36959 ft | 531 kts | 40° |
| 2026-05-07 04:43 | 36.05141 | 134.28740 | 36965 ft | 531 kts | 40° |
| 2026-05-07 04:43 | 36.10621 | 134.34895 | 36956 ft | 531 kts | 40° |
| 2026-05-07 04:44 | 36.16094 | 134.41045 | 36957 ft | 531 kts | 40° |
| 2026-05-07 04:44 | 36.21497 | 134.47190 | 36959 ft | 531 kts | 43° |
| 2026-05-07 04:45 | 36.26283 | 134.54194 | 36966 ft | 533 kts | 54° |
| 2026-05-07 04:45 | 36.30201 | 134.62023 | 36963 ft | 534 kts | 59° |
| 2026-05-07 04:46 | 36.33986 | 134.69911 | 36963 ft | 535 kts | 59° |
| 2026-05-07 04:46 | 36.37817 | 134.77809 | 36965 ft | 535 kts | 58° |
| 2026-05-07 04:47 | 36.41698 | 134.85731 | 36962 ft | 536 kts | 58° |
| 2026-05-07 04:47 | 36.45576 | 134.93646 | 36960 ft | 536 kts | 58° |
| 2026-05-07 04:48 | 36.49435 | 135.01545 | 36965 ft | 537 kts | 58° |
| 2026-05-07 04:48 | 36.52679 | 135.08209 | 36979 ft | 538 kts | 58° |
| 2026-05-07 04:49 | 36.56525 | 135.16134 | 36968 ft | 538 kts | 58° |
| 2026-05-07 04:49 | 36.60389 | 135.24115 | 36963 ft | 538 kts | 58° |
| 2026-05-07 04:50 | 36.64251 | 135.32104 | 36960 ft | 538 kts | 58° |
| 2026-05-07 04:50 | 36.68108 | 135.40099 | 36962 ft | 538 kts | 58° |
| 2026-05-07 04:51 | 36.71962 | 135.48108 | 36964 ft | 538 kts | 59° |
| 2026-05-07 04:51 | 36.75811 | 135.56126 | 36961 ft | 538 kts | 58° |
| 2026-05-07 04:52 | 36.79633 | 135.64107 | 36962 ft | 538 kts | 59° |
| 2026-05-07 04:52 | 36.83469 | 135.72141 | 36968 ft | 539 kts | 59° |
| 2026-05-07 04:53 | 36.87304 | 135.80189 | 36961 ft | 539 kts | 59° |
| 2026-05-07 04:53 | 36.91142 | 135.88259 | 36962 ft | 539 kts | 59° |
| 2026-05-07 04:54 | 36.94946 | 135.96270 | 36962 ft | 539 kts | 59° |
| 2026-05-07 04:54 | 36.98790 | 136.04389 | 36959 ft | 539 kts | 59° |
| 2026-05-07 04:55 | 37.02603 | 136.12483 | 36962 ft | 539 kts | 59° |
| 2026-05-07 04:55 | 37.06380 | 136.20524 | 36958 ft | 539 kts | 59° |
| 2026-05-07 04:56 | 37.10201 | 136.28674 | 36961 ft | 539 kts | 59° |
| 2026-05-07 04:56 | 37.13970 | 136.36727 | 36956 ft | 539 kts | 59° |
| 2026-05-07 04:57 | 37.17769 | 136.44857 | 36962 ft | 539 kts | 59° |
| 2026-05-07 04:57 | 37.21554 | 136.52978 | 36968 ft | 539 kts | 59° |
| 2026-05-07 04:58 | 37.25338 | 136.61112 | 36957 ft | 539 kts | 59° |
| 2026-05-07 04:58 | 37.29089 | 136.69206 | 36955 ft | 539 kts | 59° |
| 2026-05-07 04:59 | 37.32870 | 136.77387 | 36958 ft | 540 kts | 59° |
| 2026-05-07 04:59 | 37.36616 | 136.85503 | 36952 ft | 540 kts | 59° |
| 2026-05-07 05:00 | 37.40405 | 136.93731 | 36970 ft | 540 kts | 59° |
| 2026-05-07 05:00 | 37.44144 | 137.01875 | 36962 ft | 540 kts | 59° |
| 2026-05-07 05:01 | 37.47894 | 137.10068 | 36963 ft | 540 kts | 59° |
| 2026-05-07 05:01 | 37.51649 | 137.18290 | 36958 ft | 541 kts | 59° |
| 2026-05-07 05:02 | 37.55396 | 137.26513 | 36952 ft | 541 kts | 59° |
| 2026-05-07 05:02 | 37.59136 | 137.34738 | 36954 ft | 540 kts | 59° |
| 2026-05-07 05:03 | 37.62878 | 137.42988 | 36946 ft | 541 kts | 59° |
| 2026-05-07 05:03 | 37.66585 | 137.51189 | 36949 ft | 541 kts | 59° |
| 2026-05-07 05:04 | 37.70315 | 137.59459 | 36961 ft | 542 kts | 59° |
| 2026-05-07 05:04 | 37.74053 | 137.67761 | 36960 ft | 543 kts | 59° |
| 2026-05-07 05:05 | 37.77782 | 137.76070 | 36966 ft | 543 kts | 59° |
| 2026-05-07 05:05 | 37.81485 | 137.84346 | 36955 ft | 544 kts | 59° |
| 2026-05-07 05:06 | 37.85213 | 137.92689 | 36961 ft | 544 kts | 59° |
| 2026-05-07 05:06 | 37.88931 | 138.01027 | 36960 ft | 544 kts | 59° |
| 2026-05-07 05:07 | 37.92654 | 138.09405 | 36960 ft | 544 kts | 60° |
| 2026-05-07 05:07 | 37.96362 | 138.17789 | 36962 ft | 544 kts | 60° |
| 2026-05-07 05:08 | 38.00058 | 138.26155 | 36968 ft | 545 kts | 60° |
| 2026-05-07 05:08 | 38.03761 | 138.34493 | 36956 ft | 545 kts | 57° |
| 2026-05-07 05:09 | 38.08500 | 138.41890 | 36963 ft | 538 kts | 40° |
| 2026-05-07 05:09 | 38.14372 | 138.47651 | 36975 ft | 530 kts | 28° |
| 2026-05-07 05:10 | 38.20585 | 138.52626 | 36963 ft | 532 kts | 27° |
| 2026-05-07 05:10 | 38.26857 | 138.57658 | 36960 ft | 533 kts | 28° |
| 2026-05-07 05:11 | 38.33117 | 138.62774 | 36956 ft | 535 kts | 28° |
| 2026-05-07 05:11 | 38.39370 | 138.67936 | 36952 ft | 535 kts | 28° |
| 2026-05-07 05:12 | 38.45620 | 138.73110 | 36979 ft | 536 kts | 28° |
| 2026-05-07 05:12 | 38.51811 | 138.78240 | 36953 ft | 536 kts | 28° |
| 2026-05-07 05:13 | 38.58071 | 138.83435 | 36953 ft | 536 kts | 28° |
| 2026-05-07 05:13 | 38.64294 | 138.88608 | 36948 ft | 536 kts | 28° |
| 2026-05-07 05:14 | 38.70548 | 138.93819 | 36943 ft | 535 kts | 28° |
| 2026-05-07 05:14 | 38.76789 | 138.99030 | 36969 ft | 535 kts | 28° |
| 2026-05-07 05:15 | 38.83029 | 139.04252 | 36950 ft | 535 kts | 28° |
| 2026-05-07 05:15 | 38.89226 | 139.09448 | 36948 ft | 535 kts | 28° |
| 2026-05-07 05:16 | 38.95463 | 139.14689 | 36947 ft | 535 kts | 28° |
| 2026-05-07 05:16 | 39.01688 | 139.19931 | 36957 ft | 535 kts | 28° |
| 2026-05-07 05:17 | 39.07915 | 139.25187 | 36961 ft | 535 kts | 28° |
| 2026-05-07 05:17 | 39.14150 | 139.30459 | 36953 ft | 536 kts | 28° |
| 2026-05-07 05:18 | 39.20387 | 139.35746 | 36955 ft | 536 kts | 28° |
| 2026-05-07 05:18 | 39.26589 | 139.41013 | 36947 ft | 537 kts | 28° |
| 2026-05-07 05:19 | 39.32823 | 139.46320 | 36944 ft | 537 kts | 28° |
| 2026-05-07 05:19 | 39.39067 | 139.51645 | 36946 ft | 537 kts | 28° |
| 2026-05-07 05:20 | 39.45301 | 139.56975 | 36948 ft | 537 kts | 28° |
| 2026-05-07 05:20 | 39.51540 | 139.62320 | 36943 ft | 537 kts | 28° |
| 2026-05-07 05:21 | 39.60849 | 139.70317 | 36948 ft | 538 kts | 28° |
| 2026-05-07 05:22 | 39.67106 | 139.75705 | 36954 ft | 538 kts | 28° |
| 2026-05-07 05:22 | 39.73338 | 139.81081 | 36953 ft | 539 kts | 28° |
| 2026-05-07 05:23 | 39.79594 | 139.86488 | 36947 ft | 539 kts | 28° |
| 2026-05-07 05:23 | 39.85829 | 139.91925 | 36941 ft | 540 kts | 29° |
| 2026-05-07 05:24 | 39.92059 | 139.97421 | 36947 ft | 541 kts | 29° |
| 2026-05-07 05:24 | 39.98260 | 140.02899 | 36951 ft | 541 kts | 29° |
| 2026-05-07 05:25 | 40.04487 | 140.08398 | 36945 ft | 541 kts | 29° |
| 2026-05-07 05:25 | 40.10724 | 140.13915 | 36946 ft | 541 kts | 29° |
| 2026-05-07 05:26 | 40.16960 | 140.19446 | 36944 ft | 541 kts | 29° |
| 2026-05-07 05:26 | 40.23180 | 140.24974 | 36939 ft | 541 kts | 29° |
| 2026-05-07 05:27 | 40.29412 | 140.30524 | 36964 ft | 540 kts | 29° |
| 2026-05-07 05:27 | 40.35631 | 140.36074 | 36949 ft | 541 kts | 29° |
| 2026-05-07 05:28 | 40.41852 | 140.41641 | 36956 ft | 541 kts | 29° |
| 2026-05-07 05:28 | 40.48083 | 140.47228 | 36942 ft | 542 kts | 28° |
| 2026-05-07 05:29 | 40.54329 | 140.52839 | 36906 ft | 543 kts | 28° |
| 2026-05-07 05:29 | 40.60526 | 140.58420 | 36908 ft | 544 kts | 29° |
| 2026-05-07 05:30 | 40.66771 | 140.64055 | 36907 ft | 544 kts | 28° |
| 2026-05-07 05:30 | 40.73103 | 140.69522 | 36880 ft | 540 kts | 23° |
| 2026-05-07 05:31 | 40.79845 | 140.73618 | 36904 ft | 529 kts | 12° |
| 2026-05-07 05:31 | 40.86798 | 140.76871 | 36898 ft | 530 kts | 12° |
| 2026-05-07 05:32 | 40.93717 | 140.80277 | 36888 ft | 531 kts | 13° |
| 2026-05-07 05:32 | 41.00615 | 140.83718 | 36891 ft | 532 kts | 13° |
| 2026-05-07 05:33 | 41.07562 | 140.87174 | 36885 ft | 533 kts | 13° |
| 2026-05-07 05:33 | 41.13341 | 140.90047 | 36880 ft | 534 kts | 13° |
| 2026-05-07 05:34 | 41.20301 | 140.93513 | 36890 ft | 534 kts | 13° |
| 2026-05-07 05:34 | 41.27280 | 140.96995 | 36886 ft | 535 kts | 13° |
| 2026-05-07 05:35 | 41.34284 | 141.00479 | 36885 ft | 535 kts | 12° |
| 2026-05-07 05:35 | 41.41231 | 141.03871 | 36806 ft | 538 kts | 13° |
| 2026-05-07 05:35 | 41.44733 | 141.05871 | 35931 ft | 555 kts | 19° |
| 2026-05-07 05:36 | 41.48139 | 141.08328 | 35162 ft | 560 kts | 25° |
| 2026-05-07 05:36 | 41.51428 | 141.11303 | 34328 ft | 566 kts | 30° |
| 2026-05-07 05:36 | 41.54551 | 141.14404 | 33349 ft | 569 kts | 31° |
| 2026-05-07 05:36 | 41.57711 | 141.17598 | 32333 ft | 570 kts | 31° |
| 2026-05-07 05:37 | 41.60874 | 141.20781 | 31340 ft | 571 kts | 31° |
| 2026-05-07 05:37 | 41.64078 | 141.23964 | 30394 ft | 569 kts | 30° |
| 2026-05-07 05:37 | 41.67235 | 141.27070 | 29737 ft | 556 kts | 30° |
| 2026-05-07 05:37 | 41.70317 | 141.30093 | 28970 ft | 545 kts | 30° |
| 2026-05-07 05:38 | 41.73362 | 141.33067 | 28295 ft | 539 kts | 30° |
| 2026-05-07 05:38 | 41.76365 | 141.36003 | 27627 ft | 534 kts | 30° |
| 2026-05-07 05:38 | 41.79355 | 141.38943 | 26973 ft | 528 kts | 30° |
| 2026-05-07 05:38 | 41.82362 | 141.41681 | 26335 ft | 517 kts | 24° |
| 2026-05-07 05:39 | 41.85518 | 141.43861 | 25755 ft | 504 kts | 17° |
| 2026-05-07 05:39 | 41.88716 | 141.45559 | 25119 ft | 495 kts | 11° |
| 2026-05-07 05:39 | 41.91990 | 141.46802 | 24497 ft | 483 kts | 4° |
| 2026-05-07 05:39 | 41.95252 | 141.47663 | 24139 ft | 478 kts | 2° |
| 2026-05-07 05:40 | 41.98532 | 141.48520 | 23542 ft | 476 kts | 3° |
| 2026-05-07 05:40 | 42.01743 | 141.49388 | 22684 ft | 465 kts | 4° |
| 2026-05-07 05:40 | 42.04888 | 141.50261 | 22296 ft | 460 kts | 4° |
| 2026-05-07 05:40 | 42.08040 | 141.51140 | 21841 ft | 463 kts | 4° |
| 2026-05-07 05:41 | 42.11189 | 141.52025 | 21319 ft | 463 kts | 5° |
| 2026-05-07 05:41 | 42.14308 | 141.53229 | 20760 ft | 472 kts | 17° |
| 2026-05-07 05:41 | 42.17246 | 141.55270 | 20236 ft | 481 kts | 24° |
| 2026-05-07 05:41 | 42.20151 | 141.57573 | 19603 ft | 479 kts | 26° |
| 2026-05-07 05:42 | 42.22979 | 141.59838 | 18931 ft | 476 kts | 25° |
| 2026-05-07 05:42 | 42.25794 | 141.62051 | 18238 ft | 456 kts | 25° |
| 2026-05-07 05:42 | 42.28488 | 141.64122 | 17483 ft | 437 kts | 24° |
| 2026-05-07 05:42 | 42.31122 | 141.66105 | 16737 ft | 435 kts | 24° |
| 2026-05-07 05:43 | 42.33792 | 141.68086 | 16043 ft | 441 kts | 24° |
| 2026-05-07 05:43 | 42.36492 | 141.70089 | 15486 ft | 439 kts | 24° |
| 2026-05-07 05:43 | 42.39139 | 141.72062 | 14996 ft | 433 kts | 24° |
| 2026-05-07 05:43 | 42.41760 | 141.74064 | 14462 ft | 430 kts | 28° |
| 2026-05-07 05:44 | 42.44197 | 141.76418 | 13926 ft | 430 kts | 34° |
| 2026-05-07 05:44 | 42.46510 | 141.78961 | 13343 ft | 428 kts | 37° |
| 2026-05-07 05:44 | 42.48778 | 141.81542 | 12913 ft | 420 kts | 37° |
| 2026-05-07 05:44 | 42.50952 | 141.84043 | 12491 ft | 409 kts | 37° |
| 2026-05-07 05:45 | 42.53067 | 141.86489 | 12047 ft | 387 kts | 36° |
| 2026-05-07 05:45 | 42.55264 | 141.88316 | 11703 ft | 357 kts | 17° |
| 2026-05-07 05:45 | 42.57534 | 141.89206 | 11533 ft | 325 kts | 5° |
| 2026-05-07 05:45 | 42.59709 | 141.89555 | 11222 ft | 308 kts | 355° |
| 2026-05-07 05:46 | 42.61804 | 141.89313 | 11124 ft | 297 kts | 344° |
| 2026-05-07 05:46 | 42.63819 | 141.88840 | 11060 ft | 293 kts | 343° |
| 2026-05-07 05:46 | 42.65844 | 141.88353 | 10694 ft | 298 kts | 344° |
| 2026-05-07 05:46 | 42.67889 | 141.87864 | 10456 ft | 296 kts | 344° |
| 2026-05-07 05:47 | 42.69904 | 141.87391 | 10281 ft | 291 kts | 345° |
| 2026-05-07 05:47 | 42.71852 | 141.86938 | 10082 ft | 286 kts | 345° |
| 2026-05-07 05:47 | 42.73799 | 141.86488 | 9836 ft | 283 kts | 345° |
| 2026-05-07 05:47 | 42.75739 | 141.86038 | 9517 ft | 282 kts | 345° |
| 2026-05-07 05:48 | 42.77673 | 141.85590 | 9218 ft | 280 kts | 345° |
| 2026-05-07 05:48 | 42.79583 | 141.85151 | 8806 ft | 274 kts | 345° |
| 2026-05-07 05:48 | 42.81450 | 141.84724 | 8240 ft | 270 kts | 345° |
| 2026-05-07 05:48 | 42.83302 | 141.84231 | 7840 ft | 272 kts | 341° |
| 2026-05-07 05:49 | 42.85157 | 141.83639 | 7428 ft | 275 kts | 340° |
| 2026-05-07 05:49 | 42.87018 | 141.83035 | 7021 ft | 275 kts | 340° |
| 2026-05-07 05:49 | 42.88876 | 141.82437 | 6611 ft | 273 kts | 340° |
| 2026-05-07 05:49 | 42.90733 | 141.81845 | 6214 ft | 274 kts | 340° |
| 2026-05-07 05:50 | 42.92587 | 141.81258 | 5732 ft | 273 kts | 340° |
| 2026-05-07 05:50 | 42.94459 | 141.80664 | 5272 ft | 279 kts | 340° |
| 2026-05-07 05:50 | 42.96188 | 141.79795 | 4800 ft | 257 kts | 317° |
| 2026-05-07 05:50 | 42.97261 | 141.78021 | 4347 ft | 237 kts | 286° |
| 2026-05-07 05:51 | 42.97605 | 141.75865 | 3943 ft | 231 kts | 267° |
| 2026-05-07 05:51 | 42.97502 | 141.73692 | 3700 ft | 226 kts | 259° |
| 2026-05-07 05:51 | 42.97311 | 141.71593 | 3533 ft | 219 kts | 259° |
| 2026-05-07 05:51 | 42.97120 | 141.69622 | 3407 ft | 200 kts | 253° |
| 2026-05-07 05:52 | 42.96513 | 141.68104 | 3296 ft | 172 kts | 217° |
| 2026-05-07 05:52 | 42.95426 | 141.67537 | 3329 ft | 170 kts | 197° |
| 2026-05-07 05:52 | 42.94250 | 141.67220 | 3084 ft | 171 kts | 194° |
| 2026-05-07 05:52 | 42.93073 | 141.67067 | 2857 ft | 168 kts | 187° |
| 2026-05-07 05:53 | 42.91923 | 141.67071 | 2654 ft | 165 kts | 186° |
| 2026-05-07 05:53 | 42.90763 | 141.67120 | 2442 ft | 169 kts | 181° |
| 2026-05-07 05:53 | 42.89576 | 141.67284 | 2207 ft | 173 kts | 178° |
| 2026-05-07 05:53 | 42.88402 | 141.67487 | 1973 ft | 165 kts | 178° |
| 2026-05-07 05:54 | 42.87322 | 141.67680 | 1778 ft | 149 kts | 178° |
| 2026-05-07 05:54 | 42.86349 | 141.67853 | 1567 ft | 132 kts | 178° |
| 2026-05-07 05:54 | 42.85475 | 141.68005 | 1427 ft | 126 kts | 178° |
| 2026-05-07 05:54 | 42.84587 | 141.68163 | 1229 ft | 128 kts | 177° |
| 2026-05-07 05:55 | 42.83705 | 141.68319 | 1067 ft | 128 kts | 176° |
| 2026-05-07 05:55 | 42.82835 | 141.68472 | 879 ft | 130 kts | 175° |
| 2026-05-07 05:55 | 42.81910 | 141.68637 | 720 ft | 136 kts | 174° |
| 2026-05-07 05:55 | 42.80988 | 141.68798 | 536 ft | 132 kts | 175° |
| 2026-05-07 05:56 | 42.80095 | 141.68955 | 350 ft | 127 kts | 174° |
| 2026-05-07 05:56 | 42.79226 | 141.69111 | 199 ft | 126 kts | 173° |
| 2026-05-07 05:56 | 42.78355 | 141.69268 | 96 ft | 123 kts | 175° |
| 2026-05-07 05:56 | 42.77610 | 141.69397 | 84 ft | 88 kts | 173° |
| 2026-05-07 05:57 | 42.77157 | 141.69478 | 68 ft | 47 kts | 173° |
| 2026-05-07 05:57 | 42.76844 | 141.69507 | 66 ft | 36 kts | 189° |
| 2026-05-07 05:57 | 42.76653 | 141.69414 | 62 ft | 21 kts | 212° |
| 2026-05-07 05:57 | 42.76609 | 141.69312 | 65 ft | 11 kts | 258° |
| 2026-05-07 05:58 | 42.76599 | 141.69208 | 72 ft | 11 kts | 263° |
| 2026-05-07 05:58 | 42.76589 | 141.69094 | 65 ft | 15 kts | 269° |
| 2026-05-07 05:58 | 42.76631 | 141.68983 | 67 ft | 13 kts | 331° |
| 2026-05-07 05:58 | 42.76721 | 141.68956 | 81 ft | 13 kts | 353° |
| 2026-05-07 05:59 | 42.76819 | 141.68940 | 86 ft | 17 kts | 353° |
| 2026-05-07 05:59 | 42.76989 | 141.68909 | 85 ft | 32 kts | 352° |
| 2026-05-07 05:59 | 42.77210 | 141.68869 | 86 ft | 32 kts | 353° |
| 2026-05-07 05:59 | 42.77378 | 141.68841 | 88 ft | 20 kts | 352° |
| 2026-05-07 06:00 | 42.77498 | 141.68766 | 89 ft | 20 kts | 309° |
| 2026-05-07 06:00 | 42.77504 | 141.68582 | 87 ft | 20 kts | 262° |
| 2026-05-07 06:00 | 42.77485 | 141.68396 | 85 ft | 20 kts | 262° |
| 2026-05-07 06:00 | 42.77476 | 141.68204 | 88 ft | 21 kts | 280° |
| 2026-05-07 06:01 | 42.77518 | 141.68014 | 91 ft | 21 kts | 288° |
| 2026-05-07 06:01 | 42.77563 | 141.67825 | 96 ft | 21 kts | 287° |
| 2026-05-07 06:01 | 42.77606 | 141.67637 | 96 ft | 19 kts | 289° |
| 2026-05-07 06:01 | 42.77716 | 141.67552 | 95 ft | 19 kts | 355° |
| 2026-05-07 06:02 | 42.77851 | 141.67529 | 97 ft | 19 kts | 352° |
| 2026-05-07 06:02 | 42.77985 | 141.67505 | 96 ft | 19 kts | 352° |
| 2026-05-07 06:02 | 42.78119 | 141.67482 | 98 ft | 19 kts | 353° |
| 2026-05-07 06:02 | 42.78254 | 141.67459 | 96 ft | 19 kts | 353° |
| 2026-05-07 06:03 | 42.78388 | 141.67435 | 97 ft | 19 kts | 352° |
| 2026-05-07 06:03 | 42.78512 | 141.67413 | 98 ft | 11 kts | 354° |
| 2026-05-07 06:03 | 42.78532 | 141.67425 | 98 ft | 5 kts | 47° |
| 2026-05-07 06:03 | 42.78546 | 141.67483 | 98 ft | 1 kts | 79° |
| 2026-05-07 06:04 | 42.78549 | 141.67504 | 98 ft | 3 kts | 81° |
| 2026-05-07 06:04 | 42.78550 | 141.67510 | 97 ft | 0 kts | 82° |
| 2026-05-07 06:04 | 42.78550 | 141.67511 | 97 ft | 0 kts | 82° |